Etusivu
METAR-TAF:

METAR-TAF

Lentoasemat :

Palmer, Alaska, Yhdysvallat

Leveyspiiri: 61-36N, Pituuspiiri: 149-05W, korkeus merenpinnasta: 74 m

Tämänhetkinen sää

Tämä raportti tehtiin 1 tunti ja 3 minuuttia sitten, kello 07.53 UTC
Tuuli 4 kn lounaasta
Lämpötila 14°C
Kosteus 82%
Ilmanpaine 1025 hPa
Näkyvyys: 16.1 km
selkeää

METAR: PAAQ 200753Z AUTO 23004KT 10SM CLR 14/11 A3028 RMK AO2 SLP254 T01440106 TSNO

Aika: 00:56 (08:56 UTC)

Sääennuste

Tämä raportti tehtiin 3 tuntia ja 26 minuuttia sitten, kello 05.30 UTC
Ennuste voimassa 20. päivästä klo 06 UTC - 21. päivään klo 06 UTC
Tuuli 5 kn eri suunnista
Näkyvyys: 10 km
selkeää

TAF: PAAQ 200530Z 2006/2106 VRB05KT P6SM SKC

Säähavainnot ja -ennusteet yli 4000 lentoasemalta (METAR- ja TAF-raportit).

Käytössä olevat sääasemat on merkitty karttaan keltaisilla ja punaisilla pisteillä.

Aseta hiiri pisteen päälle nähdäksesi sääaseman nimen.

Klikkaa sitten nähdäksesi säähavainnot ja -ennusteet.

Kartan vaihtaminen: klikkaa mustalla rastilla varustettuja vihreitä pisteitä, niin voit zoomata sisään; viivalla varustettua vihreää pistettä, niin voit zoomata ulos tai vihreitä nuolia, niin pääset viereisille kartoille.


METAR-TAF: